aviador You're here:

SBEG Decoded Metar

MANAUS in BRAZIL
Report Time2018-04-22 14:00:00
UTC Time2018-04-22 14:28:02
Flight Rules vfr VFR
Wind040° at 02 kt
W.Decomp.*RWY 10: 1.4 kt HW 1.5 kt LCW
W.Rank040° ranks 2
Current wind is below 040° avg. (4.6)
Visibility9999 m
Phenomena:N/A
Clouds:Scattered 012 Hf
Broken 100 Hf
Expected CloudBase > 1,600 ft AGL from Temp-Dew spread
Ceiling10,000 ft
Temp27°C (ISA +12)
Dew Point23°C (79% RH)
Heat Index29.6°C
QNH1014 hPa
Density Alt1,729 ft
Elevation7 ft
Report Wrong Elevation
Raw Report
METAR SBEG 221400Z 04002KT 9999 SCT012 BKN100 27/23 Q1014=

Extra information for SBEG:More info

Metar Taf Metar & Taf Last 4 Metars F.Rules Stats Wind Profile Meteogram Temp Stats Airport Information Weather charts Add Link Nearby VenuesMetar ALERT Operation Metar Decoded Social comments